Time;durP1;ratioP1;P1;durP2;ratioP2;P2;SDS_P1;SDS_P2;PMS_P1;PMS_P2;Temp;Humidity;BMP_temperature;BMP_pressure;BME280_temperature;BME280_humidity;BME280_pressure;Samples;Min_cycle;Max_cycle;Signal;HPM_P1;HPM_P2
2023/02/13 00:00:33;;;;;;;7.32;6.32;;;;;;;5.39;100.00;100597.22;15297191;19;20500;-83
2023/02/13 00:06:01;;;;;;;10.10;6.78;;;;;;;5.37;100.00;100596.41;15295735;19;20010;-82
2023/02/13 00:11:32;;;;;;;8.13;6.90;;;;;;;5.31;100.00;100594.06;15291583;19;20019;-83
2023/02/13 00:16:57;;;;;;;7.73;6.90;;;;;;;5.31;100.00;100596.72;15297812;19;20062;-82
2023/02/13 00:22:24;;;;;;;7.43;6.22;;;;;;;5.30;100.00;100598.50;15295967;19;20530;-82
2023/02/13 00:27:52;;;;;;;8.23;6.93;;;;;;;5.29;100.00;100593.25;15292582;19;20014;-81
2023/02/13 00:33:16;;;;;;;7.63;6.45;;;;;;;5.31;100.00;100596.72;15299277;19;20098;-82
2023/02/13 00:38:44;;;;;;;7.78;6.65;;;;;;;5.30;100.00;100594.97;15297006;19;20029;-82
2023/02/13 00:44:08;;;;;;;7.88;6.53;;;;;;;5.30;100.00;100592.31;15299216;19;20485;-82
2023/02/13 00:49:33;;;;;;;7.72;6.43;;;;;;;5.30;100.00;100594.97;15295027;19;20015;-82
2023/02/13 00:55:00;;;;;;;8.45;7.30;;;;;;;5.29;100.00;100596.81;15299869;19;20066;-82
2023/02/13 01:00:25;;;;;;;9.15;7.32;;;;;;;5.29;100.00;100602.16;15291882;19;20007;-83
2023/02/13 01:05:50;;;;;;;8.85;7.40;;;;;;;5.29;100.00;100604.81;15293208;19;20031;-83
2023/02/13 01:11:24;;;;;;;10.13;7.78;;;;;;;5.28;100.00;100594.19;15288209;19;20027;-83
2023/02/13 01:16:49;;;;;;;10.25;7.22;;;;;;;5.28;100.00;100591.50;15293285;19;20014;-83
2023/02/13 01:22:16;;;;;;;9.60;7.93;;;;;;;5.28;100.00;100608.44;15292459;19;20015;-82
2023/02/13 01:27:44;;;;;;;10.48;7.78;;;;;;;5.28;100.00;100600.41;15292922;19;20021;-83
2023/02/13 01:33:08;;;;;;;11.35;7.85;;;;;;;5.25;100.00;100597.88;15286018;19;20010;-83
2023/02/13 01:38:33;;;;;;;11.10;8.40;;;;;;;5.22;100.00;100595.34;15289084;19;20071;-84
2023/02/13 01:44:03;;;;;;;11.13;8.93;;;;;;;5.15;100.00;100589.44;15286779;19;20022;-82
2023/02/13 01:49:28;;;;;;;9.65;8.07;;;;;;;5.17;100.00;100592.91;15284325;19;20018;-83
2023/02/13 01:54:55;;;;;;;11.32;8.77;;;;;;;5.18;100.00;100593.75;15290762;19;20520;-84
2023/02/13 02:00:24;;;;;;;9.70;8.13;;;;;;;5.19;100.00;100587.47;15285177;19;20059;-84
2023/02/13 02:05:50;;;;;;;10.75;7.88;;;;;;;5.19;100.00;100584.78;15285408;19;20106;-83
2023/02/13 02:11:27;;;;;;;8.50;7.13;;;;;;;5.17;100.00;100581.34;15286583;19;20018;-84
2023/02/13 02:16:55;;;;;;;8.38;7.20;;;;;;;5.18;100.00;100575.03;15289815;19;20438;-82
2023/02/13 02:22:49;;;;;;;9.32;7.50;;;;;;;5.16;100.00;100574.28;15291949;19;20089;-83
2023/02/13 02:28:47;;;;;;;9.55;7.78;;;;;;;5.15;100.00;100568.03;15325741;19;20030;-83
2023/02/13 02:34:25;;;;;;;7.78;6.95;;;;;;;5.16;100.00;100563.59;15300894;19;20035;-83
2023/02/13 02:40:03;;;;;;;8.40;7.30;;;;;;;5.16;100.00;100550.22;15276353;19;20013;-83
2023/02/13 02:45:34;;;;;;;8.88;7.30;;;;;;;5.13;100.00;100556.56;15282727;19;20022;-82
2023/02/13 02:51:09;;;;;;;7.60;6.85;;;;;;;5.11;100.00;100550.44;15277289;19;20043;-82
2023/02/13 02:56:43;;;;;;;6.95;6.25;;;;;;;5.12;100.00;100536.13;15283712;19;20469;-83
2023/02/13 03:08:00;;;;;;;7.72;6.93;;;;;;;5.07;100.00;100535.50;15278900;19;20035;-83
2023/02/13 03:13:40;;;;;;;9.00;7.80;;;;;;;5.05;100.00;100537.38;15283005;19;20018;-83
2023/02/13 03:25:00;;;;;;;11.70;9.00;;;;;;;5.00;100.00;100542.09;15284612;19;20015;-84
2023/02/13 03:30:52;;;;;;;9.03;8.00;;;;;;;4.98;100.00;100546.63;15290582;19;20031;-84
2023/02/13 03:42:12;;;;;;;6.57;5.88;;;;;;;4.85;100.00;100560.56;15290223;19;20010;-84
2023/02/13 03:47:38;;;;;;;6.43;5.72;;;;;;;4.83;100.00;100556.22;15297457;19;20015;-84
2023/02/13 03:53:07;;;;;;;8.35;7.28;;;;;;;4.81;100.00;100556.28;15302363;19;20092;-83
2023/02/13 04:04:20;;;;;;;6.57;5.97;;;;;;;4.72;100.00;100559.41;15298321;19;20014;-82
2023/02/13 04:09:45;;;;;;;5.97;5.38;;;;;;;4.66;100.00;100551.66;15292256;19;20024;-83
2023/02/13 04:15:20;;;;;;;7.68;5.93;;;;;;;4.61;100.00;100543.84;15297966;19;20002;-83
2023/02/13 04:20:45;;;;;;;6.97;6.30;;;;;;;4.48;100.00;100538.22;15290757;19;20141;-83
2023/02/13 04:26:13;;;;;;;7.40;6.70;;;;;;;4.45;100.00;100541.91;15291253;19;20411;-83
2023/02/13 04:31:41;;;;;;;7.15;6.45;;;;;;;4.31;100.00;100541.66;15289534;19;20094;-83
2023/02/13 04:37:06;;;;;;;6.75;6.13;;;;;;;4.29;100.00;100541.72;15296770;19;20010;-81
2023/02/13 04:42:31;;;;;;;7.35;6.65;;;;;;;4.18;100.00;100541.31;15296030;19;20014;-79
2023/02/13 04:48:01;;;;;;;7.57;6.85;;;;;;;4.11;100.00;100545.22;15289349;19;20011;-81
2023/02/13 04:53:26;;;;;;;8.20;7.40;;;;;;;4.01;100.00;100540.28;15294357;19;20086;-78
2023/02/13 04:58:50;;;;;;;8.68;7.82;;;;;;;3.98;100.00;100545.75;15291456;19;20474;-80
2023/02/13 05:04:18;;;;;;;8.18;7.43;;;;;;;3.94;100.00;100541.47;15295301;19;20617;-81
2023/02/13 05:09:43;;;;;;;8.45;7.65;;;;;;;3.93;100.00;100545.09;15295075;19;20466;-81
2023/02/13 05:15:09;;;;;;;8.90;8.00;;;;;;;3.85;100.00;100541.88;15285693;19;20046;-80
2023/02/13 05:20:36;;;;;;;8.75;7.50;;;;;;;3.84;100.00;100548.13;15284867;19;20462;-79
2023/02/13 05:26:02;;;;;;;9.10;7.50;;;;;;;3.80;100.00;100543.88;15292225;19;20051;-78
2023/02/13 05:31:26;;;;;;;8.20;7.40;;;;;;;3.75;100.00;100551.19;15312297;19;20010;-79
2023/02/13 05:36:54;;;;;;;8.95;8.05;;;;;;;3.73;100.00;100547.72;15329639;19;20018;-79
2023/02/13 05:42:18;;;;;;;10.15;9.05;;;;;;;3.70;100.00;100556.72;15280469;19;20074;-79
2023/02/13 05:47:43;;;;;;;9.32;8.43;;;;;;;3.66;100.00;100556.00;15283607;19;20018;-79
2023/02/13 05:53:12;;;;;;;9.93;8.93;;;;;;;3.68;100.00;100562.13;15277738;19;20419;-81
2023/02/13 05:58:37;;;;;;;10.35;9.25;;;;;;;3.66;100.00;100573.78;15285052;19;20078;-81
2023/02/13 06:04:01;;;;;;;10.30;9.30;;;;;;;3.63;100.00;100564.09;15286354;19;20100;-81
2023/02/13 06:09:30;;;;;;;10.35;9.20;;;;;;;3.59;100.00;100577.63;15281900;19;20010;-80
2023/02/13 06:14:54;;;;;;;10.95;9.50;;;;;;;3.57;100.00;100571.50;15287894;19;20014;-81
2023/02/13 06:20:20;;;;;;;9.85;8.88;;;;;;;3.55;100.00;100579.56;15285181;19;20078;-79
2023/02/13 06:25:47;;;;;;;10.35;9.00;;;;;;;3.52;100.00;100580.56;15288175;19;20050;-80
2023/02/13 06:31:12;;;;;;;9.98;9.00;;;;;;;3.51;100.00;100589.50;15288474;19;20014;-80
2023/02/13 06:36:37;;;;;;;11.20;9.90;;;;;;;3.47;100.00;100589.69;15292052;19;20413;-80
2023/02/13 06:42:05;;;;;;;10.75;9.50;;;;;;;3.43;100.00;100601.38;15286717;19;20747;-80
2023/02/13 06:47:29;;;;;;;10.25;9.25;;;;;;;3.37;100.00;100608.69;15290880;19;20018;-80
2023/02/13 06:52:54;;;;;;;10.45;8.60;;;;;;;3.30;100.00;100607.19;15281685;19;20014;-78
2023/02/13 06:58:21;;;;;;;9.70;8.75;;;;;;;3.30;100.00;100604.53;15290823;19;20423;-80
2023/02/13 07:03:49;;;;;;;9.07;7.18;;;;;;;3.29;100.00;100608.13;15286648;19;20082;-77
2023/02/13 07:09:15;;;;;;;7.88;7.07;;;;;;;3.23;100.00;100611.03;15291794;19;20010;-81
2023/02/13 07:14:43;;;;;;;7.18;6.55;;;;;;;3.17;100.00;100603.28;15295581;19;20007;-81
2023/02/13 07:20:09;;;;;;;7.50;6.80;;;;;;;3.11;100.00;100603.53;15312358;19;20011;-81
2023/02/13 07:25:34;;;;;;;6.82;6.13;;;;;;;3.05;100.00;100599.31;15313290;19;20042;-81
2023/02/13 07:31:01;;;;;;;7.25;6.55;;;;;;;2.95;100.00;100598.78;15307729;19;20031;-82
2023/02/13 07:36:26;;;;;;;9.00;7.45;;;;;;;2.86;100.00;100600.00;15315523;19;20328;-80
2023/02/13 07:41:50;;;;;;;15.20;7.50;;;;;;;2.79;100.00;100603.84;15302333;19;20369;-81
2023/02/13 07:47:18;;;;;;;9.57;7.13;;;;;;;2.72;100.00;100618.28;15338391;19;20010;-81
2023/02/13 07:52:42;;;;;;;12.75;7.20;;;;;;;2.61;100.00;100626.66;15331901;19;20477;-82
2023/02/13 07:58:07;;;;;;;21.75;7.60;;;;;;;2.56;100.00;100624.19;15306369;19;20018;-83
2023/02/13 08:03:36;;;;;;;24.13;7.32;;;;;;;2.52;100.00;100632.34;15308193;19;20023;-80
2023/02/13 08:14:37;;;;;;;47.45;7.47;;;;;;;2.41;100.00;100641.53;15308960;19;20014;-81
2023/02/13 08:20:09;;;;;;;24.85;7.72;;;;;;;2.45;100.00;100643.19;15305981;19;20018;-81
2023/02/13 08:25:34;;;;;;;113.03;8.30;;;;;;;2.39;100.00;100643.41;15310012;19;20014;-82
2023/02/13 08:31:05;;;;;;;58.83;8.00;;;;;;;2.49;100.00;100648.41;15327576;19;20047;-83
2023/02/13 08:36:24;;;;;;;52.95;7.15;;;;;;;2.58;100.00;100653.38;15325593;19;20082;-81
2023/02/13 08:41:48;;;;;;;38.05;7.13;;;;;;;2.59;100.00;100655.97;15291968;19;20086;-80
2023/02/13 08:47:12;;;;;;;83.28;7.15;;;;;;;2.60;100.00;100656.88;15302649;19;20002;-79
2023/02/13 08:52:40;;;;;;;37.00;5.97;;;;;;;2.71;100.00;100662.66;15294486;19;20074;-78
2023/02/13 08:58:08;;;;;;;28.85;7.22;;;;;;;2.73;100.00;100655.50;15297384;19;20015;-79
2023/02/13 09:03:32;;;;;;;18.58;5.90;;;;;;;2.73;100.00;100647.53;15292465;19;20026;-79
2023/02/13 09:09:07;;;;;;;21.48;5.72;;;;;;;2.86;100.00;100657.72;15291727;19;20007;-78
2023/02/13 09:14:32;;;;;;;18.30;4.93;;;;;;;2.88;100.00;100648.75;15295763;19;20375;-78
2023/02/13 09:19:58;;;;;;;39.83;5.03;;;;;;;2.94;100.00;100647.66;15286324;19;20456;-79
2023/02/13 09:25:26;;;;;;;28.63;4.80;;;;;;;3.03;100.00;100639.31;15284869;19;20017;-79
2023/02/13 09:30:51;;;;;;;5.55;5.05;;;;;;;3.14;100.00;100643.34;15290206;19;20014;-80
2023/02/13 09:36:18;;;;;;;17.80;5.45;;;;;;;3.21;100.00;100643.06;15298930;19;20025;-79
2023/02/13 09:41:49;;;;;;;5.47;4.97;;;;;;;3.27;100.00;100647.28;15293039;19;20085;-79
2023/02/13 09:47:18;;;;;;;6.72;5.28;;;;;;;3.36;100.00;100646.91;15302716;19;20006;-80
2023/02/13 09:52:46;;;;;;;9.95;5.03;;;;;;;3.38;100.00;100644.22;15265695;19;20026;-79
2023/02/13 09:58:20;;;;;;;7.90;5.53;;;;;;;3.39;100.00;100646.78;15293223;19;20073;-78
2023/02/13 10:03:53;;;;;;;10.30;7.75;;;;;;;3.46;100.00;100636.78;15290544;19;20010;-77
2023/02/13 10:09:33;;;;;;;8.60;6.68;;;;;;;3.48;100.00;100642.91;15278969;19;20022;-77
2023/02/13 10:15:11;;;;;;;5.75;5.25;;;;;;;3.61;100.00;100632.59;15286131;19;20014;-77
2023/02/13 10:20:43;;;;;;;5.53;4.97;;;;;;;3.77;100.00;100629.31;15283959;19;20109;-78
2023/02/13 10:26:13;;;;;;;6.10;4.93;;;;;;;3.85;100.00;100632.53;15284808;19;20015;-77
2023/02/13 10:31:41;;;;;;;4.97;4.57;;;;;;;3.98;100.00;100625.75;15286806;19;20466;-78
2023/02/13 10:37:11;;;;;;;4.60;4.20;;;;;;;4.01;100.00;100620.31;15294584;19;20073;-77
2023/02/13 10:42:47;;;;;;;4.93;4.43;;;;;;;4.16;100.00;100605.44;15283878;19;20025;-78
2023/02/13 10:48:29;;;;;;;4.88;4.43;;;;;;;4.18;100.00;100589.34;15288639;19;20070;-77
2023/02/13 10:54:07;;;;;;;4.70;4.30;;;;;;;4.30;100.00;100586.16;15301002;19;20019;-78
2023/02/13 10:59:55;;;;;;;4.97;4.55;;;;;;;4.38;100.00;100576.94;15306062;19;20022;-78
2023/02/13 11:05:28;;;;;;;4.82;4.32;;;;;;;4.42;100.00;100567.84;15309485;19;20337;-80
2023/02/13 11:11:01;;;;;;;4.70;4.30;;;;;;;4.44;100.00;100549.97;15301090;19;20014;-78
2023/02/13 11:16:25;;;;;;;4.30;3.90;;;;;;;4.54;100.00;100545.09;15306193;19;20086;-78
2023/02/13 11:21:55;;;;;;;4.43;4.03;;;;;;;4.62;100.00;100550.94;15300283;19;20010;-77
2023/02/13 11:27:25;;;;;;;4.43;4.03;;;;;;;4.63;100.00;100539.31;15313926;19;20354;-79
2023/02/13 11:32:43;;;;;;;4.25;3.88;;;;;;;4.73;100.00;100535.28;15353631;19;20022;-76
2023/02/13 11:38:25;;;;;;;3.90;3.60;;;;;;;4.75;100.00;100537.91;15297948;19;20077;-78
2023/02/13 11:43:59;;;;;;;3.75;3.45;;;;;;;4.81;100.00;100529.59;15291796;19;20026;-77
2023/02/13 11:49:26;;;;;;;3.75;3.45;;;;;;;4.84;100.00;100534.78;15306034;19;20063;-77
2023/02/13 11:55:04;;;;;;;3.40;3.10;;;;;;;4.98;100.00;100527.94;15335013;19;20018;-78
2023/02/13 12:00:36;;;;;;;2.80;2.60;;;;;;;4.81;100.00;100524.25;15292112;19;20023;-78
2023/02/13 12:06:21;;;;;;;3.03;2.83;;;;;;;4.96;100.00;100516.44;15302721;19;20081;-78
2023/02/13 12:12:05;;;;;;;2.40;2.20;;;;;;;5.04;100.00;100512.47;15297528;19;20007;-78
2023/02/13 12:17:42;;;;;;;3.25;2.72;;;;;;;5.15;100.00;100500.38;15304371;19;20031;-78
2023/02/13 12:23:31;;;;;;;2.65;2.45;;;;;;;5.21;100.00;100490.25;15300399;19;20774;-78
2023/02/13 12:29:29;;;;;;;4.30;3.08;;;;;;;5.23;100.00;100488.34;15299111;19;20018;-79
2023/02/13 12:35:16;;;;;;;3.47;2.95;;;;;;;5.40;100.00;100495.56;15301785;19;20090;-78
2023/02/13 12:40:56;;;;;;;2.95;2.67;;;;;;;5.50;100.00;100490.59;15297268;19;20011;-78
2023/02/13 12:46:32;;;;;;;3.10;2.80;;;;;;;5.63;100.00;100489.97;15303001;19;20015;-78
2023/02/13 12:52:10;;;;;;;2.90;2.70;;;;;;;5.65;100.00;100474.72;15291673;19;20014;-79
2023/02/13 12:57:50;;;;;;;2.55;2.35;;;;;;;5.70;100.00;100467.34;15300379;19;20363;-79
2023/02/13 13:03:35;;;;;;;2.70;2.50;;;;;;;5.79;100.00;100476.66;15299561;19;20062;-77
2023/02/13 13:09:18;;;;;;;2.25;2.10;;;;;;;5.86;100.00;100462.06;15292247;19;20018;-78
2023/02/13 13:14:50;;;;;;;2.10;2.00;;;;;;;5.96;100.00;100462.41;15290900;19;20006;-78
2023/02/13 13:20:56;;;;;;;2.40;2.20;;;;;;;5.99;100.00;100446.19;15285917;19;20029;-79
2023/02/13 13:26:30;;;;;;;2.40;2.20;;;;;;;6.10;100.00;100445.66;15289603;19;20039;-79
2023/02/13 13:32:02;;;;;;;2.42;2.10;;;;;;;6.15;100.00;100441.81;15286245;19;20338;-79
2023/02/13 13:37:37;;;;;;;2.33;2.13;;;;;;;6.25;100.00;100436.78;15291194;19;20415;-78
2023/02/13 13:43:11;;;;;;;1.90;1.80;;;;;;;6.32;100.00;100427.50;15290908;19;20035;-78
2023/02/13 13:48:59;;;;;;;2.22;2.10;;;;;;;6.33;100.00;100431.00;15288331;19;20095;-77
2023/02/13 13:54:33;;;;;;;2.10;2.00;;;;;;;6.50;100.00;100418.53;15275538;19;20113;-78
2023/02/13 14:00:26;;;;;;;2.13;2.03;;;;;;;6.75;100.00;100418.88;15285483;19;20014;-77
2023/02/13 14:06:14;;;;;;;2.03;1.90;;;;;;;6.87;100.00;100401.22;15283572;19;20042;-78
2023/02/13 14:11:46;;;;;;;1.95;1.83;;;;;;;7.01;100.00;100397.72;15282285;19;20007;-78
2023/02/13 14:17:13;;;;;;;2.10;1.95;;;;;;;7.09;100.00;100394.59;15285867;19;20019;-78
2023/02/13 14:22:40;;;;;;;2.17;1.98;;;;;;;7.09;100.00;100392.78;15289167;19;20039;-78
2023/02/13 14:28:10;;;;;;;4.30;1.90;;;;;;;7.15;100.00;100388.88;15287513;19;20022;-77
2023/02/13 14:33:35;;;;;;;1.80;1.70;;;;;;;7.33;100.00;100386.03;15299449;19;20466;-80
2023/02/13 14:39:04;;;;;;;3.88;2.10;;;;;;;7.70;100.00;100381.97;15325783;19;20046;-78
2023/02/13 14:44:35;;;;;;;2.05;1.85;;;;;;;8.07;100.00;100369.91;14801867;19;10000956;-78
2023/02/13 14:50:01;;;;;;;2.00;1.90;;;;;;;8.38;100.00;100366.13;15280004;19;20299;-78
2023/02/13 14:55:35;;;;;;;4.68;1.88;;;;;;;8.54;100.00;100363.34;15284076;19;20025;-78
2023/02/13 15:01:09;;;;;;;2.97;1.80;;;;;;;8.91;100.00;100360.06;15272539;19;20484;-77
2023/02/13 15:06:32;;;;;;;2.17;1.80;;;;;;;9.05;100.00;100351.06;15283718;19;20380;-79
2023/02/13 15:12:03;;;;;;;1.77;1.52;;;;;;;9.26;100.00;100348.75;15277227;19;20492;-80
2023/02/13 15:17:37;;;;;;;3.57;1.60;;;;;;;9.31;100.00;100337.66;15278403;19;20011;-80
2023/02/13 15:23:02;;;;;;;5.32;1.60;;;;;;;9.55;100.00;100344.03;15282128;19;20093;-79
2023/02/13 15:28:27;;;;;;;1.80;1.70;;;;;;;9.65;100.00;100348.75;15281771;19;20354;-79
2023/02/13 15:33:57;;;;;;;1.73;1.63;;;;;;;9.62;100.00;100349.84;15277201;19;20011;-79
2023/02/13 15:39:26;;;;;;;2.88;1.70;;;;;;;9.30;100.00;100339.47;15292355;19;20006;-79
2023/02/13 15:44:54;;;;;;;1.70;1.60;;;;;;;9.20;100.00;100339.25;15301642;19;20066;-79
2023/02/13 15:50:26;;;;;;;2.13;1.85;;;;;;;8.94;100.00;100331.13;15290300;19;20015;-80
2023/02/13 15:56:06;;;;;;;1.77;1.65;;;;;;;8.74;100.00;100328.94;15297968;19;20352;-79
2023/02/13 16:01:32;;;;;;;1.92;1.80;;;;;;;8.60;100.00;100335.19;15298300;19;20356;-79
2023/02/13 16:07:03;;;;;;;2.20;2.00;;;;;;;8.44;100.00;100344.25;15315757;19;20018;-80
2023/02/13 16:12:30;;;;;;;2.20;2.00;;;;;;;8.11;100.00;100323.13;15312393;19;20010;-79
2023/02/13 16:17:55;;;;;;;2.17;2.03;;;;;;;7.85;100.00;100304.16;15302245;19;20018;-79
2023/02/13 16:23:23;;;;;;;2.45;2.25;;;;;;;7.67;100.00;100316.91;15299045;19;20010;-78
2023/02/13 16:28:48;;;;;;;3.40;2.17;;;;;;;7.46;100.00;100319.13;15301333;19;20011;-78
2023/02/13 16:34:17;;;;;;;2.42;2.22;;;;;;;7.20;100.00;100314.38;15299440;19;20011;-78
2023/02/13 16:39:45;;;;;;;2.70;2.50;;;;;;;6.96;100.00;100311.38;15303662;19;20454;-79
2023/02/13 16:45:25;;;;;;;2.70;2.50;;;;;;;6.69;100.00;100317.41;15308912;19;20050;-81
2023/02/13 16:50:51;;;;;;;3.20;2.90;;;;;;;6.45;100.00;100322.38;15297757;19;20029;-80
2023/02/13 16:56:18;;;;;;;3.22;2.92;;;;;;;6.24;100.00;100336.00;15306237;19;20007;-80
2023/02/13 17:01:43;;;;;;;3.08;2.88;;;;;;;5.90;100.00;100340.53;15297778;19;20022;-79
2023/02/13 17:07:14;;;;;;;3.45;3.15;;;;;;;5.66;100.00;100348.94;15298392;19;20035;-79
2023/02/13 17:12:49;;;;;;;3.95;3.55;;;;;;;5.48;100.00;100356.13;15297175;19;20011;-79
2023/02/13 17:18:14;;;;;;;4.32;3.97;;;;;;;5.27;100.00;100373.28;15296858;19;20466;-78
2023/02/13 17:23:39;;;;;;;4.40;4.00;;;;;;;5.17;100.00;100373.78;15306108;19;20018;-78
2023/02/13 17:29:06;;;;;;;4.22;3.70;;;;;;;5.04;100.00;100389.56;15299620;19;20271;-79
2023/02/13 17:34:32;;;;;;;4.22;3.75;;;;;;;4.87;100.00;100377.06;15294052;19;20482;-77
2023/02/13 17:39:57;;;;;;;4.47;4.07;;;;;;;4.74;100.00;100383.94;15289883;19;20014;-77
2023/02/13 17:45:26;;;;;;;4.95;4.55;;;;;;;4.53;100.00;100394.72;15298078;19;20006;-78
2023/02/13 17:50:52;;;;;;;5.60;5.00;;;;;;;4.46;100.00;100401.28;15294613;19;20015;-77
2023/02/13 17:56:23;;;;;;;6.25;5.65;;;;;;;4.29;100.00;100392.28;15315570;19;20014;-76
2023/02/13 18:01:51;;;;;;;7.07;6.37;;;;;;;4.14;100.00;100399.19;15325309;19;20014;-76
2023/02/13 18:07:17;;;;;;;7.78;6.82;;;;;;;4.03;100.00;100412.16;15286391;19;20009;-78
2023/02/13 18:12:43;;;;;;;7.75;7.05;;;;;;;3.91;100.00;100408.28;15281813;19;20026;-77
2023/02/13 18:18:14;;;;;;;8.00;7.30;;;;;;;3.83;100.00;100405.06;15298376;19;20160;-79
2023/02/13 18:23:39;;;;;;;8.88;7.97;;;;;;;3.65;100.00;100402.31;15309681;19;20010;-79
2023/02/13 18:29:04;;;;;;;8.95;8.15;;;;;;;3.55;100.00;100403.66;15293453;19;20037;-79
2023/02/13 18:34:31;;;;;;;9.95;9.05;;;;;;;3.46;100.00;100404.06;15295362;19;20010;-78
2023/02/13 18:39:56;;;;;;;10.65;9.65;;;;;;;3.42;100.00;100405.09;15290969;19;20672;-78
2023/02/13 18:45:21;;;;;;;10.45;9.30;;;;;;;3.34;100.00;100409.00;15282637;19;20458;-77
2023/02/13 18:50:50;;;;;;;11.40;10.20;;;;;;;3.32;100.00;100410.84;15295658;19;20058;-78
2023/02/13 18:56:15;;;;;;;11.40;10.30;;;;;;;3.25;100.00;100409.34;15279933;19;20872;-77
2023/02/13 19:01:40;;;;;;;11.32;10.23;;;;;;;3.19;100.00;100401.63;15272895;19;20015;-79
2023/02/13 19:07:07;;;;;;;14.75;12.43;;;;;;;3.14;100.00;100393.84;15278307;19;20011;-76
2023/02/13 19:12:39;;;;;;;13.48;12.07;;;;;;;3.08;100.00;100394.97;15273236;19;20034;-76
2023/02/13 19:18:03;;;;;;;13.23;11.93;;;;;;;3.03;100.00;100396.94;15287199;19;20357;-76
2023/02/13 19:23:31;;;;;;;12.68;11.02;;;;;;;2.97;100.00;100389.22;15300453;19;20279;-77
2023/02/13 19:28:57;;;;;;;11.75;10.60;;;;;;;2.88;100.00;100381.63;15304427;19;20011;-77
2023/02/13 19:34:22;;;;;;;11.35;10.32;;;;;;;2.78;100.00;100391.78;15298190;19;20018;-77
2023/02/13 19:39:49;;;;;;;11.80;10.60;;;;;;;2.69;100.00;100387.69;15302140;19;20018;-77
2023/02/13 19:45:15;;;;;;;10.95;9.88;;;;;;;2.58;100.00;100381.94;15301635;19;20005;-77
2023/02/13 19:50:41;;;;;;;10.88;9.88;;;;;;;2.47;100.00;100379.69;15291581;19;20017;-77
2023/02/13 19:56:12;;;;;;;11.27;10.15;;;;;;;2.37;100.00;100384.53;15298825;19;20714;-77
2023/02/13 20:01:37;;;;;;;13.20;11.90;;;;;;;2.24;100.00;100377.97;15300797;19;20025;-77
2023/02/13 20:07:01;;;;;;;12.73;11.45;;;;;;;2.19;100.00;100371.94;15301671;19;20315;-78
2023/02/13 20:12:28;;;;;;;14.82;13.40;;;;;;;2.12;100.00;100385.50;15319388;19;20086;-77
2023/02/13 20:17:53;;;;;;;16.33;14.23;;;;;;;2.07;100.00;100378.63;15313430;19;20027;-77
2023/02/13 20:23:18;;;;;;;18.75;16.02;;;;;;;2.02;100.00;100378.78;15300429;19;20020;-77
2023/02/13 20:28:46;;;;;;;18.52;15.65;;;;;;;1.97;100.00;100376.31;15296994;19;20014;-78
2023/02/13 20:34:12;;;;;;;20.83;16.00;;;;;;;1.92;100.00;100378.25;15296005;19;20026;-77
2023/02/13 20:39:39;;;;;;;19.98;16.10;;;;;;;1.85;100.00;100388.25;15294452;19;20059;-77
2023/02/13 20:45:14;;;;;;;15.93;13.85;;;;;;;1.78;100.00;100392.06;15303304;19;20014;-78
2023/02/13 20:50:38;;;;;;;19.85;13.77;;;;;;;1.69;100.00;100389.75;15287302;19;20032;-78
2023/02/13 20:56:12;;;;;;;13.23;11.82;;;;;;;1.60;100.00;100382.09;15316943;19;20031;-78
2023/02/13 21:01:40;;;;;;;15.48;13.70;;;;;;;1.56;100.00;100383.16;15311531;19;20018;-76
2023/02/13 21:07:08;;;;;;;14.05;12.55;;;;;;;1.50;100.00;100390.41;15286982;19;20378;-76
2023/02/13 21:12:33;;;;;;;23.65;12.07;;;;;;;1.36;100.00;100396.22;15284214;19;20081;-78
2023/02/13 21:18:02;;;;;;;63.15;10.57;;;;;;;1.25;100.00;100392.19;15289538;19;20747;-75
2023/02/13 21:23:27;;;;;;;14.30;9.23;;;;;;;1.15;100.00;100381.91;15286009;19;20015;-77
2023/02/13 21:28:53;;;;;;;345.95;14.32;;;;;;;1.14;100.00;100390.78;15215486;19;20026;-75
2023/02/13 21:34:24;;;;;;;300.80;13.02;;;;;;;1.15;100.00;100405.78;15287640;19;20010;-74
2023/02/13 21:39:50;;;;;;;231.60;12.05;;;;;;;1.13;100.00;100409.44;15291915;19;20022;-75
2023/02/13 21:45:15;;;;;;;427.52;15.05;;;;;;;1.11;100.00;100414.81;15298625;19;20028;-80
2023/02/13 21:50:43;;;;;;;331.60;12.57;;;;;;;1.09;100.00;100416.63;15289223;19;20014;-75
2023/02/13 21:56:12;;;;;;;290.75;11.35;;;;;;;1.07;100.00;100410.50;15284951;19;20070;-80
2023/02/13 22:01:41;;;;;;;364.83;12.15;;;;;;;1.01;100.00;100408.03;15288964;19;20027;-80
2023/02/13 22:07:11;;;;;;;331.15;11.93;;;;;;;0.97;100.00;100409.09;15290384;19;20018;-79
2023/02/13 22:12:42;;;;;;;201.75;10.00;;;;;;;0.96;100.00;100407.34;15285680;19;20118;-81
2023/02/13 22:18:07;;;;;;;125.32;8.48;;;;;;;0.94;100.00;100407.41;15303066;19;20014;-80
2023/02/13 22:23:34;;;;;;;99.68;8.43;;;;;;;0.92;100.00;100422.50;15293657;19;20019;-81
2023/02/13 22:29:02;;;;;;;132.68;8.25;;;;;;;0.89;100.00;100428.75;15290468;19;20014;-81
2023/02/13 22:34:26;;;;;;;71.75;7.97;;;;;;;0.85;100.00;100435.09;15292863;19;20014;-81
2023/02/13 22:39:54;;;;;;;117.93;8.35;;;;;;;0.84;100.00;100441.31;15294501;19;20462;-81
2023/02/13 22:45:19;;;;;;;201.02;9.70;;;;;;;0.81;100.00;100441.41;15294457;19;20011;-81
2023/02/13 22:50:44;;;;;;;242.85;10.15;;;;;;;0.79;100.00;100447.69;15287740;19;20022;-79
2023/02/13 22:56:12;;;;;;;323.20;11.40;;;;;;;0.76;100.00;100446.03;15284160;19;20383;-80
2023/02/13 23:01:37;;;;;;;202.13;9.45;;;;;;;0.71;100.00;100450.59;15280868;19;20106;-81
2023/02/13 23:07:02;;;;;;;928.97;21.67;;;;;;;0.66;100.00;100441.88;15291738;19;20036;-81
2023/02/13 23:12:39;;;;;;;372.23;12.10;;;;;;;0.58;100.00;100448.31;15286363;19;20010;-79
2023/02/13 23:18:16;;;;;;;874.55;20.58;;;;;;;0.48;100.00;100438.03;15291190;19;20040;-82
2023/02/13 23:23:44;;;;;;;222.35;11.30;;;;;;;0.41;100.00;100445.34;15289254;19;20386;-82
2023/02/13 23:29:12;;;;;;;339.42;12.27;;;;;;;0.39;100.00;100447.16;15284997;19;20014;-81
2023/02/13 23:34:36;;;;;;;669.75;16.52;;;;;;;0.35;100.00;100445.50;15285450;19;20029;-80
2023/02/13 23:40:02;;;;;;;372.40;12.18;;;;;;;0.33;100.00;100450.88;15298230;19;20018;-80
2023/02/13 23:45:48;;;;;;;213.63;10.15;;;;;;;0.30;100.00;100458.91;15310454;19;20021;-80
2023/02/13 23:51:14;;;;;;;475.65;14.00;;;;;;;0.29;100.00;100458.00;15305571;19;20486;-81
2023/02/13 23:56:39;;;;;;;406.23;12.32;;;;;;;0.27;100.00;100461.63;15276906;19;20074;-80
